sensor_id;sensor_type;location;lat;lon;timestamp;temperature;humidity
36800;DHT22;22752;51.960;5.886;2022-08-14T00:00:24;23.10;79.60
36800;DHT22;22752;51.960;5.886;2022-08-14T00:02:50;23.10;79.80
36800;DHT22;22752;51.960;5.886;2022-08-14T00:05:19;23.10;80.10
36800;DHT22;22752;51.960;5.886;2022-08-14T00:07:46;23.00;80.20
36800;DHT22;22752;51.960;5.886;2022-08-14T00:10:15;23.00;80.60
36800;DHT22;22752;51.960;5.886;2022-08-14T00:12:50;22.90;80.80
36800;DHT22;22752;51.960;5.886;2022-08-14T00:15:21;22.90;80.90
36800;DHT22;22752;51.960;5.886;2022-08-14T00:17:47;22.80;81.10
36800;DHT22;22752;51.960;5.886;2022-08-14T00:20:14;22.80;81.20
36800;DHT22;22752;51.960;5.886;2022-08-14T00:22:40;22.80;81.50
36800;DHT22;22752;51.960;5.886;2022-08-14T00:25:07;22.70;81.80
36800;DHT22;22752;51.960;5.886;2022-08-14T00:27:33;22.70;82.00
36800;DHT22;22752;51.960;5.886;2022-08-14T00:29:58;22.60;82.30
36800;DHT22;22752;51.960;5.886;2022-08-14T00:32:24;22.60;82.20
36800;DHT22;22752;51.960;5.886;2022-08-14T00:34:50;22.60;82.70
36800;DHT22;22752;51.960;5.886;2022-08-14T00:37:15;22.50;82.70
36800;DHT22;22752;51.960;5.886;2022-08-14T00:39:41;22.40;82.90
36800;DHT22;22752;51.960;5.886;2022-08-14T00:42:07;22.40;83.30
36800;DHT22;22752;51.960;5.886;2022-08-14T00:44:33;22.40;83.20
36800;DHT22;22752;51.960;5.886;2022-08-14T00:47:00;22.40;83.60
36800;DHT22;22752;51.960;5.886;2022-08-14T00:49:27;22.30;83.60
36800;DHT22;22752;51.960;5.886;2022-08-14T00:51:53;22.30;84.00
36800;DHT22;22752;51.960;5.886;2022-08-14T00:54:19;22.20;84.40
36800;DHT22;22752;51.960;5.886;2022-08-14T00:56:44;22.20;84.50
36800;DHT22;22752;51.960;5.886;2022-08-14T00:59:10;22.10;84.50
36800;DHT22;22752;51.960;5.886;2022-08-14T01:01:37;22.10;84.90
36800;DHT22;22752;51.960;5.886;2022-08-14T01:04:03;22.00;85.00
36800;DHT22;22752;51.960;5.886;2022-08-14T01:06:29;21.90;85.20
36800;DHT22;22752;51.960;5.886;2022-08-14T01:08:58;21.90;85.50
36800;DHT22;22752;51.960;5.886;2022-08-14T01:11:25;21.90;86.00
36800;DHT22;22752;51.960;5.886;2022-08-14T01:13:50;21.90;86.00
36800;DHT22;22752;51.960;5.886;2022-08-14T01:16:17;21.80;86.10
36800;DHT22;22752;51.960;5.886;2022-08-14T01:18:45;21.80;86.20
36800;DHT22;22752;51.960;5.886;2022-08-14T01:21:35;21.70;86.30
36800;DHT22;22752;51.960;5.886;2022-08-14T01:24:02;21.70;86.70
36800;DHT22;22752;51.960;5.886;2022-08-14T01:26:28;21.60;86.80
36800;DHT22;22752;51.960;5.886;2022-08-14T01:28:56;21.70;87.10
36800;DHT22;22752;51.960;5.886;2022-08-14T01:31:28;21.60;86.90
36800;DHT22;22752;51.960;5.886;2022-08-14T01:33:56;21.50;87.20
36800;DHT22;22752;51.960;5.886;2022-08-14T01:36:24;21.50;87.40
36800;DHT22;22752;51.960;5.886;2022-08-14T01:38:52;21.40;87.60
36800;DHT22;22752;51.960;5.886;2022-08-14T01:41:20;21.40;87.80
36800;DHT22;22752;51.960;5.886;2022-08-14T01:43:50;21.40;88.20
36800;DHT22;22752;51.960;5.886;2022-08-14T01:46:21;21.40;88.40
36800;DHT22;22752;51.960;5.886;2022-08-14T01:48:48;21.30;88.40
36800;DHT22;22752;51.960;5.886;2022-08-14T01:51:17;21.30;88.50
36800;DHT22;22752;51.960;5.886;2022-08-14T01:53:47;21.20;88.80
36800;DHT22;22752;51.960;5.886;2022-08-14T01:56:16;21.20;89.20
36800;DHT22;22752;51.960;5.886;2022-08-14T01:58:47;21.20;89.30
36800;DHT22;22752;51.960;5.886;2022-08-14T02:01:20;21.20;89.40
36800;DHT22;22752;51.960;5.886;2022-08-14T02:03:46;21.20;89.50
36800;DHT22;22752;51.960;5.886;2022-08-14T02:06:12;21.20;89.60
36800;DHT22;22752;51.960;5.886;2022-08-14T02:08:40;21.10;89.80
36800;DHT22;22752;51.960;5.886;2022-08-14T02:11:07;21.10;90.00
36800;DHT22;22752;51.960;5.886;2022-08-14T02:13:56;21.10;90.10
36800;DHT22;22752;51.960;5.886;2022-08-14T02:16:26;21.00;90.00
36800;DHT22;22752;51.960;5.886;2022-08-14T02:18:55;21.00;90.20
36800;DHT22;22752;51.960;5.886;2022-08-14T02:21:22;20.90;90.20
36800;DHT22;22752;51.960;5.886;2022-08-14T02:23:49;20.90;90.40
36800;DHT22;22752;51.960;5.886;2022-08-14T02:26:22;20.90;90.50
36800;DHT22;22752;51.960;5.886;2022-08-14T02:28:50;20.90;90.50
36800;DHT22;22752;51.960;5.886;2022-08-14T02:31:17;20.90;90.50
36800;DHT22;22752;51.960;5.886;2022-08-14T02:33:43;20.90;90.50
36800;DHT22;22752;51.960;5.886;2022-08-14T02:36:10;20.90;90.50
36800;DHT22;22752;51.960;5.886;2022-08-14T02:38:37;20.90;90.50
36800;DHT22;22752;51.960;5.886;2022-08-14T02:41:03;20.80;90.50
36800;DHT22;22752;51.960;5.886;2022-08-14T02:43:30;20.80;90.60
36800;DHT22;22752;51.960;5.886;2022-08-14T02:45:57;20.80;90.60
36800;DHT22;22752;51.960;5.886;2022-08-14T02:48:23;20.70;90.60
36800;DHT22;22752;51.960;5.886;2022-08-14T02:50:57;20.70;90.60
36800;DHT22;22752;51.960;5.886;2022-08-14T02:53:23;20.60;90.80
36800;DHT22;22752;51.960;5.886;2022-08-14T02:55:49;20.60;90.90
36800;DHT22;22752;51.960;5.886;2022-08-14T02:58:15;20.50;91.00
36800;DHT22;22752;51.960;5.886;2022-08-14T03:00:41;20.50;91.00
36800;DHT22;22752;51.960;5.886;2022-08-14T03:03:07;20.40;91.20
36800;DHT22;22752;51.960;5.886;2022-08-14T03:05:33;20.40;91.10
36800;DHT22;22752;51.960;5.886;2022-08-14T03:08:13;20.40;91.20
36800;DHT22;22752;51.960;5.886;2022-08-14T03:10:39;20.40;91.30
36800;DHT22;22752;51.960;5.886;2022-08-14T03:13:04;20.30;91.50
36800;DHT22;22752;51.960;5.886;2022-08-14T03:15:33;20.30;91.60
36800;DHT22;22752;51.960;5.886;2022-08-14T03:18:08;20.30;91.70
36800;DHT22;22752;51.960;5.886;2022-08-14T03:20:33;20.30;91.70
36800;DHT22;22752;51.960;5.886;2022-08-14T03:23:00;20.20;92.00
36800;DHT22;22752;51.960;5.886;2022-08-14T03:25:27;20.20;92.10
36800;DHT22;22752;51.960;5.886;2022-08-14T03:28:01;20.10;92.10
36800;DHT22;22752;51.960;5.886;2022-08-14T03:30:29;20.10;92.30
36800;DHT22;22752;51.960;5.886;2022-08-14T03:32:56;20.10;92.20
36800;DHT22;22752;51.960;5.886;2022-08-14T03:35:22;20.10;92.50
36800;DHT22;22752;51.960;5.886;2022-08-14T03:37:48;20.00;92.50
36800;DHT22;22752;51.960;5.886;2022-08-14T03:40:15;20.10;92.50
36800;DHT22;22752;51.960;5.886;2022-08-14T03:42:41;20.10;92.60
36800;DHT22;22752;51.960;5.886;2022-08-14T03:45:06;20.10;92.60
36800;DHT22;22752;51.960;5.886;2022-08-14T03:47:32;20.10;92.60
36800;DHT22;22752;51.960;5.886;2022-08-14T03:50:06;20.10;92.80
36800;DHT22;22752;51.960;5.886;2022-08-14T03:52:34;20.10;92.80
36800;DHT22;22752;51.960;5.886;2022-08-14T03:55:00;20.10;92.90
36800;DHT22;22752;51.960;5.886;2022-08-14T03:57:28;20.10;93.00
36800;DHT22;22752;51.960;5.886;2022-08-14T03:59:57;20.10;92.90
36800;DHT22;22752;51.960;5.886;2022-08-14T04:02:22;20.10;93.00
36800;DHT22;22752;51.960;5.886;2022-08-14T04:04:49;20.10;93.10
36800;DHT22;22752;51.960;5.886;2022-08-14T04:07:14;20.00;93.10
36800;DHT22;22752;51.960;5.886;2022-08-14T04:09:40;20.00;93.10
36800;DHT22;22752;51.960;5.886;2022-08-14T04:12:06;20.00;93.20
36800;DHT22;22752;51.960;5.886;2022-08-14T04:14:31;20.00;93.20
36800;DHT22;22752;51.960;5.886;2022-08-14T04:16:57;20.00;93.20
36800;DHT22;22752;51.960;5.886;2022-08-14T04:19:23;19.90;93.30
36800;DHT22;22752;51.960;5.886;2022-08-14T04:21:49;19.90;93.40
36800;DHT22;22752;51.960;5.886;2022-08-14T04:24:15;19.90;93.40
36800;DHT22;22752;51.960;5.886;2022-08-14T04:26:42;19.90;93.60
36800;DHT22;22752;51.960;5.886;2022-08-14T04:29:10;19.80;93.70
36800;DHT22;22752;51.960;5.886;2022-08-14T04:31:37;19.80;93.70
36800;DHT22;22752;51.960;5.886;2022-08-14T04:34:03;19.80;93.90
36800;DHT22;22752;51.960;5.886;2022-08-14T04:36:30;19.80;93.90
36800;DHT22;22752;51.960;5.886;2022-08-14T04:38:57;19.80;93.90
36800;DHT22;22752;51.960;5.886;2022-08-14T04:41:41;19.90;93.90
36800;DHT22;22752;51.960;5.886;2022-08-14T04:44:25;19.90;94.00
36800;DHT22;22752;51.960;5.886;2022-08-14T04:46:51;19.90;94.00
36800;DHT22;22752;51.960;5.886;2022-08-14T04:49:35;19.90;94.00
36800;DHT22;22752;51.960;5.886;2022-08-14T04:52:01;19.90;94.00
36800;DHT22;22752;51.960;5.886;2022-08-14T04:54:29;20.00;94.00
36800;DHT22;22752;51.960;5.886;2022-08-14T04:56:55;20.00;93.90
36800;DHT22;22752;51.960;5.886;2022-08-14T04:59:22;20.10;93.90
36800;DHT22;22752;51.960;5.886;2022-08-14T05:01:47;20.10;93.90
36800;DHT22;22752;51.960;5.886;2022-08-14T05:04:13;20.10;93.90
36800;DHT22;22752;51.960;5.886;2022-08-14T05:06:39;20.20;93.90
36800;DHT22;22752;51.960;5.886;2022-08-14T05:09:06;20.20;94.00
36800;DHT22;22752;51.960;5.886;2022-08-14T05:11:32;20.20;94.10
36800;DHT22;22752;51.960;5.886;2022-08-14T05:14:01;20.20;94.10
36800;DHT22;22752;51.960;5.886;2022-08-14T05:16:27;20.30;94.10
36800;DHT22;22752;51.960;5.886;2022-08-14T05:18:57;20.30;94.10
36800;DHT22;22752;51.960;5.886;2022-08-14T05:21:22;20.50;94.00
36800;DHT22;22752;51.960;5.886;2022-08-14T05:23:49;21.10;93.80
36800;DHT22;22752;51.960;5.886;2022-08-14T05:26:16;21.90;92.80
36800;DHT22;22752;51.960;5.886;2022-08-14T05:28:46;22.70;91.80
36800;DHT22;22752;51.960;5.886;2022-08-14T05:31:13;23.40;90.90
36800;DHT22;22752;51.960;5.886;2022-08-14T05:33:42;24.10;90.10
36800;DHT22;22752;51.960;5.886;2022-08-14T05:36:09;24.70;88.10
36800;DHT22;22752;51.960;5.886;2022-08-14T05:38:38;24.90;86.20
36800;DHT22;22752;51.960;5.886;2022-08-14T05:41:24;25.20;85.50
36800;DHT22;22752;51.960;5.886;2022-08-14T05:43:50;25.50;84.30
36800;DHT22;22752;51.960;5.886;2022-08-14T05:46:17;25.80;84.50
36800;DHT22;22752;51.960;5.886;2022-08-14T05:48:51;26.20;83.30
36800;DHT22;22752;51.960;5.886;2022-08-14T05:51:21;26.30;82.10
36800;DHT22;22752;51.960;5.886;2022-08-14T05:53:48;26.30;81.90
36800;DHT22;22752;51.960;5.886;2022-08-14T05:56:14;26.50;81.70
36800;DHT22;22752;51.960;5.886;2022-08-14T05:58:40;26.80;81.10
36800;DHT22;22752;51.960;5.886;2022-08-14T06:01:05;27.00;80.10
36800;DHT22;22752;51.960;5.886;2022-08-14T06:03:31;27.10;79.60
36800;DHT22;22752;51.960;5.886;2022-08-14T06:05:57;27.20;79.20
36800;DHT22;22752;51.960;5.886;2022-08-14T06:08:31;27.60;79.50
36800;DHT22;22752;51.960;5.886;2022-08-14T06:10:59;28.00;78.70
36800;DHT22;22752;51.960;5.886;2022-08-14T06:13:35;28.30;77.40
36800;DHT22;22752;51.960;5.886;2022-08-14T06:16:01;28.30;76.40
36800;DHT22;22752;51.960;5.886;2022-08-14T06:18:27;28.30;76.20
36800;DHT22;22752;51.960;5.886;2022-08-14T06:20:53;28.30;76.10
36800;DHT22;22752;51.960;5.886;2022-08-14T06:23:19;28.20;76.70
36800;DHT22;22752;51.960;5.886;2022-08-14T06:25:44;28.30;76.70
36800;DHT22;22752;51.960;5.886;2022-08-14T06:28:21;28.40;76.10
36800;DHT22;22752;51.960;5.886;2022-08-14T06:30:47;28.30;76.20
36800;DHT22;22752;51.960;5.886;2022-08-14T06:33:15;28.30;76.60
36800;DHT22;22752;51.960;5.886;2022-08-14T06:35:41;28.50;76.10
36800;DHT22;22752;51.960;5.886;2022-08-14T06:38:06;28.90;76.40
36800;DHT22;22752;51.960;5.886;2022-08-14T06:40:36;29.40;75.60
36800;DHT22;22752;51.960;5.886;2022-08-14T06:43:05;29.80;75.00
36800;DHT22;22752;51.960;5.886;2022-08-14T06:45:31;30.10;74.10
36800;DHT22;22752;51.960;5.886;2022-08-14T06:47:58;30.20;73.30
36800;DHT22;22752;51.960;5.886;2022-08-14T06:50:24;30.20;72.90
36800;DHT22;22752;51.960;5.886;2022-08-14T06:52:52;30.10;72.70
36800;DHT22;22752;51.960;5.886;2022-08-14T06:55:17;30.00;72.40
36800;DHT22;22752;51.960;5.886;2022-08-14T06:57:48;29.90;73.00
36800;DHT22;22752;51.960;5.886;2022-08-14T07:00:22;29.90;73.00
36800;DHT22;22752;51.960;5.886;2022-08-14T07:02:48;29.90;72.80
36800;DHT22;22752;51.960;5.886;2022-08-14T07:05:33;29.90;72.50
36800;DHT22;22752;51.960;5.886;2022-08-14T07:08:26;29.90;72.80
36800;DHT22;22752;51.960;5.886;2022-08-14T07:10:56;30.20;72.90
36800;DHT22;22752;51.960;5.886;2022-08-14T07:13:23;30.60;73.00
36800;DHT22;22752;51.960;5.886;2022-08-14T07:15:51;30.90;71.80
36800;DHT22;22752;51.960;5.886;2022-08-14T07:18:22;31.20;70.70
36800;DHT22;22752;51.960;5.886;2022-08-14T07:20:48;31.00;70.00
36800;DHT22;22752;51.960;5.886;2022-08-14T07:23:14;30.90;70.70
36800;DHT22;22752;51.960;5.886;2022-08-14T07:25:42;30.80;70.30
36800;DHT22;22752;51.960;5.886;2022-08-14T07:28:16;30.70;70.90
36800;DHT22;22752;51.960;5.886;2022-08-14T07:30:43;31.10;71.40
36800;DHT22;22752;51.960;5.886;2022-08-14T07:33:10;31.50;70.30
36800;DHT22;22752;51.960;5.886;2022-08-14T07:35:36;31.60;69.40
36800;DHT22;22752;51.960;5.886;2022-08-14T07:38:04;31.60;69.70
36800;DHT22;22752;51.960;5.886;2022-08-14T07:40:30;31.70;69.60
36800;DHT22;22752;51.960;5.886;2022-08-14T07:42:56;31.90;69.80
36800;DHT22;22752;51.960;5.886;2022-08-14T07:45:21;32.30;69.90
36800;DHT22;22752;51.960;5.886;2022-08-14T07:47:47;32.40;68.60
36800;DHT22;22752;51.960;5.886;2022-08-14T07:50:15;32.20;68.00
36800;DHT22;22752;51.960;5.886;2022-08-14T07:52:42;31.80;68.40
36800;DHT22;22752;51.960;5.886;2022-08-14T07:55:10;31.60;68.80
36800;DHT22;22752;51.960;5.886;2022-08-14T07:57:42;31.40;69.50
36800;DHT22;22752;51.960;5.886;2022-08-14T08:00:16;31.20;70.30
36800;DHT22;22752;51.960;5.886;2022-08-14T08:02:46;31.20;70.30
36800;DHT22;22752;51.960;5.886;2022-08-14T08:05:14;31.40;70.60
36800;DHT22;22752;51.960;5.886;2022-08-14T08:07:41;31.80;70.30
36800;DHT22;22752;51.960;5.886;2022-08-14T08:10:13;32.00;69.70
36800;DHT22;22752;51.960;5.886;2022-08-14T08:15:28;32.50;68.20
36800;DHT22;22752;51.960;5.886;2022-08-14T08:17:54;32.20;68.10
36800;DHT22;22752;51.960;5.886;2022-08-14T08:20:24;32.20;69.00
36800;DHT22;22752;51.960;5.886;2022-08-14T08:22:52;32.20;68.70
36800;DHT22;22752;51.960;5.886;2022-08-14T08:25:24;32.30;68.20
36800;DHT22;22752;51.960;5.886;2022-08-14T08:27:58;32.10;68.30
36800;DHT22;22752;51.960;5.886;2022-08-14T08:30:24;32.30;68.80
36800;DHT22;22752;51.960;5.886;2022-08-14T08:32:53;32.40;67.80
36800;DHT22;22752;51.960;5.886;2022-08-14T08:35:20;32.10;68.10
36800;DHT22;22752;51.960;5.886;2022-08-14T08:37:48;32.00;68.30
36800;DHT22;22752;51.960;5.886;2022-08-14T08:40:22;31.90;68.70
36800;DHT22;22752;51.960;5.886;2022-08-14T08:42:48;31.80;68.80
36800;DHT22;22752;51.960;5.886;2022-08-14T08:45:15;31.80;68.60
36800;DHT22;22752;51.960;5.886;2022-08-14T08:47:41;31.90;68.70
36800;DHT22;22752;51.960;5.886;2022-08-14T08:52:56;32.00;68.50
36800;DHT22;22752;51.960;5.886;2022-08-14T08:55:37;32.10;68.10
36800;DHT22;22752;51.960;5.886;2022-08-14T08:58:12;32.10;68.60
36800;DHT22;22752;51.960;5.886;2022-08-14T09:00:39;32.10;68.70
36800;DHT22;22752;51.960;5.886;2022-08-14T09:03:11;31.70;68.60
36800;DHT22;22752;51.960;5.886;2022-08-14T09:05:47;31.50;69.20
36800;DHT22;22752;51.960;5.886;2022-08-14T09:08:25;31.30;69.50
36800;DHT22;22752;51.960;5.886;2022-08-14T09:10:53;31.10;70.00
36800;DHT22;22752;51.960;5.886;2022-08-14T09:13:20;30.70;70.20
36800;DHT22;22752;51.960;5.886;2022-08-14T09:15:48;30.30;70.70
36800;DHT22;22752;51.960;5.886;2022-08-14T09:18:18;30.00;71.70
36800;DHT22;22752;51.960;5.886;2022-08-14T09:20:51;29.90;72.00
36800;DHT22;22752;51.960;5.886;2022-08-14T09:23:17;29.80;71.90
36800;DHT22;22752;51.960;5.886;2022-08-14T09:25:46;29.80;71.30
36800;DHT22;22752;51.960;5.886;2022-08-14T09:28:13;29.60;71.70
36800;DHT22;22752;51.960;5.886;2022-08-14T09:30:46;29.60;72.10
36800;DHT22;22752;51.960;5.886;2022-08-14T09:33:30;29.70;72.20
36800;DHT22;22752;51.960;5.886;2022-08-14T09:36:33;29.70;72.70
36800;DHT22;22752;51.960;5.886;2022-08-14T09:44:42;29.60;72.50
36800;DHT22;22752;51.960;5.886;2022-08-14T09:47:10;29.60;72.90
36800;DHT22;22752;51.960;5.886;2022-08-14T09:49:38;29.70;72.90
36800;DHT22;22752;51.960;5.886;2022-08-14T09:52:12;29.80;72.10
36800;DHT22;22752;51.960;5.886;2022-08-14T09:54:45;29.70;71.50
36800;DHT22;22752;51.960;5.886;2022-08-14T09:57:24;29.60;71.90
36800;DHT22;22752;51.960;5.886;2022-08-14T09:59:50;29.60;71.70
36800;DHT22;22752;51.960;5.886;2022-08-14T10:02:27;29.60;71.70
36800;DHT22;22752;51.960;5.886;2022-08-14T10:05:08;29.60;72.20
36800;DHT22;22752;51.960;5.886;2022-08-14T10:07:49;29.70;72.00
36800;DHT22;22752;51.960;5.886;2022-08-14T10:10:34;29.70;72.20
36800;DHT22;22752;51.960;5.886;2022-08-14T10:13:01;29.70;72.20
36800;DHT22;22752;51.960;5.886;2022-08-14T10:15:30;29.70;72.20
36800;DHT22;22752;51.960;5.886;2022-08-14T10:18:13;29.70;72.20
36800;DHT22;22752;51.960;5.886;2022-08-14T10:20:41;29.70;71.90
36800;DHT22;22752;51.960;5.886;2022-08-14T10:23:41;29.80;72.80
36800;DHT22;22752;51.960;5.886;2022-08-14T10:26:09;29.80;72.00
36800;DHT22;22752;51.960;5.886;2022-08-14T10:28:47;29.90;71.60
36800;DHT22;22752;51.960;5.886;2022-08-14T10:31:28;29.90;71.30
36800;DHT22;22752;51.960;5.886;2022-08-14T10:36:32;29.80;71.30
36800;DHT22;22752;51.960;5.886;2022-08-14T10:39:03;29.80;71.80
36800;DHT22;22752;51.960;5.886;2022-08-14T10:41:40;29.90;71.10
36800;DHT22;22752;51.960;5.886;2022-08-14T10:44:16;29.90;71.40
36800;DHT22;22752;51.960;5.886;2022-08-14T10:46:51;30.00;71.70
36800;DHT22;22752;51.960;5.886;2022-08-14T10:49:22;30.20;71.70
36800;DHT22;22752;51.960;5.886;2022-08-14T10:54:41;30.20;69.40
36800;DHT22;22752;51.960;5.886;2022-08-14T10:57:22;30.10;69.70
36800;DHT22;22752;51.960;5.886;2022-08-14T10:59:51;30.00;70.90
36800;DHT22;22752;51.960;5.886;2022-08-14T11:05:14;30.20;69.50
36800;DHT22;22752;51.960;5.886;2022-08-14T11:10:22;30.20;68.90
36800;DHT22;22752;51.960;5.886;2022-08-14T11:12:51;30.20;70.00
36800;DHT22;22752;51.960;5.886;2022-08-14T11:15:23;30.20;68.90
36800;DHT22;22752;51.960;5.886;2022-08-14T11:17:49;30.20;69.30
36800;DHT22;22752;51.960;5.886;2022-08-14T11:20:18;30.20;69.30
36800;DHT22;22752;51.960;5.886;2022-08-14T11:22:46;30.20;69.40
36800;DHT22;22752;51.960;5.886;2022-08-14T11:25:14;30.30;69.00
36800;DHT22;22752;51.960;5.886;2022-08-14T11:27:45;30.40;68.40
36800;DHT22;22752;51.960;5.886;2022-08-14T11:30:14;30.30;69.10
36800;DHT22;22752;51.960;5.886;2022-08-14T11:32:43;30.40;68.70
36800;DHT22;22752;51.960;5.886;2022-08-14T11:35:30;30.40;68.30
36800;DHT22;22752;51.960;5.886;2022-08-14T11:38:02;30.40;67.60
36800;DHT22;22752;51.960;5.886;2022-08-14T11:40:33;30.40;67.30
36800;DHT22;22752;51.960;5.886;2022-08-14T11:43:03;30.50;67.00
36800;DHT22;22752;51.960;5.886;2022-08-14T11:45:31;30.50;67.50
36800;DHT22;22752;51.960;5.886;2022-08-14T11:48:00;30.70;67.80
36800;DHT22;22752;51.960;5.886;2022-08-14T11:50:32;30.70;67.80
36800;DHT22;22752;51.960;5.886;2022-08-14T11:52:59;30.90;67.10
36800;DHT22;22752;51.960;5.886;2022-08-14T11:55:33;31.00;66.60
36800;DHT22;22752;51.960;5.886;2022-08-14T11:58:03;30.90;65.60
36800;DHT22;22752;51.960;5.886;2022-08-14T12:00:29;30.80;65.90
36800;DHT22;22752;51.960;5.886;2022-08-14T12:02:57;30.90;65.60
36800;DHT22;22752;51.960;5.886;2022-08-14T12:05:33;30.80;66.10
36800;DHT22;22752;51.960;5.886;2022-08-14T12:08:01;30.60;66.70
36800;DHT22;22752;51.960;5.886;2022-08-14T12:10:32;30.60;66.40
36800;DHT22;22752;51.960;5.886;2022-08-14T12:12:58;30.70;66.70
36800;DHT22;22752;51.960;5.886;2022-08-14T12:15:34;30.70;65.30
36800;DHT22;22752;51.960;5.886;2022-08-14T12:18:01;30.50;65.90
36800;DHT22;22752;51.960;5.886;2022-08-14T12:20:38;30.60;66.60
36800;DHT22;22752;51.960;5.886;2022-08-14T12:23:05;30.80;66.10
36800;DHT22;22752;51.960;5.886;2022-08-14T12:25:33;31.10;65.70
36800;DHT22;22752;51.960;5.886;2022-08-14T12:28:02;31.40;65.10
36800;DHT22;22752;51.960;5.886;2022-08-14T12:30:44;31.60;64.90
36800;DHT22;22752;51.960;5.886;2022-08-14T12:33:26;31.70;64.10
36800;DHT22;22752;51.960;5.886;2022-08-14T12:35:53;31.70;64.30
36800;DHT22;22752;51.960;5.886;2022-08-14T12:38:31;31.70;63.10
36800;DHT22;22752;51.960;5.886;2022-08-14T12:41:00;31.70;63.60
36800;DHT22;22752;51.960;5.886;2022-08-14T12:43:25;31.70;63.70
36800;DHT22;22752;51.960;5.886;2022-08-14T12:45:53;31.80;64.30
36800;DHT22;22752;51.960;5.886;2022-08-14T12:48:20;31.90;64.50
36800;DHT22;22752;51.960;5.886;2022-08-14T12:50:47;31.90;64.40
36800;DHT22;22752;51.960;5.886;2022-08-14T12:53:17;31.90;64.10
36800;DHT22;22752;51.960;5.886;2022-08-14T12:55:44;31.70;63.60
36800;DHT22;22752;51.960;5.886;2022-08-14T12:58:10;31.70;64.20
36800;DHT22;22752;51.960;5.886;2022-08-14T13:00:48;31.60;64.00
36800;DHT22;22752;51.960;5.886;2022-08-14T13:03:27;31.60;64.20
36800;DHT22;22752;51.960;5.886;2022-08-14T13:05:54;31.70;63.90
36800;DHT22;22752;51.960;5.886;2022-08-14T13:08:20;31.70;63.70
36800;DHT22;22752;51.960;5.886;2022-08-14T13:10:50;31.80;64.10
36800;DHT22;22752;51.960;5.886;2022-08-14T13:13:18;31.70;63.70
36800;DHT22;22752;51.960;5.886;2022-08-14T13:15:46;31.50;64.10
36800;DHT22;22752;51.960;5.886;2022-08-14T13:18:15;31.60;64.60
36800;DHT22;22752;51.960;5.886;2022-08-14T13:20:42;31.70;63.70
36800;DHT22;22752;51.960;5.886;2022-08-14T13:23:11;31.70;63.30
36800;DHT22;22752;51.960;5.886;2022-08-14T13:25:41;31.90;63.70
36800;DHT22;22752;51.960;5.886;2022-08-14T13:28:08;32.00;63.30
36800;DHT22;22752;51.960;5.886;2022-08-14T13:30:36;32.10;63.20
36800;DHT22;22752;51.960;5.886;2022-08-14T13:33:02;32.00;63.00
36800;DHT22;22752;51.960;5.886;2022-08-14T13:35:31;31.80;63.50
36800;DHT22;22752;51.960;5.886;2022-08-14T13:37:56;31.60;63.30
36800;DHT22;22752;51.960;5.886;2022-08-14T13:40:23;31.60;63.60
36800;DHT22;22752;51.960;5.886;2022-08-14T13:42:49;31.60;63.60
36800;DHT22;22752;51.960;5.886;2022-08-14T13:45:18;31.30;63.40
36800;DHT22;22752;51.960;5.886;2022-08-14T13:47:47;31.10;63.60
36800;DHT22;22752;51.960;5.886;2022-08-14T13:50:14;31.20;64.10
36800;DHT22;22752;51.960;5.886;2022-08-14T13:52:43;31.10;64.50
36800;DHT22;22752;51.960;5.886;2022-08-14T13:55:24;31.10;64.40
36800;DHT22;22752;51.960;5.886;2022-08-14T13:57:50;30.90;64.80
36800;DHT22;22752;51.960;5.886;2022-08-14T14:00:18;30.70;65.30
36800;DHT22;22752;51.960;5.886;2022-08-14T14:02:45;30.60;65.40
36800;DHT22;22752;51.960;5.886;2022-08-14T14:05:16;30.60;65.30
36800;DHT22;22752;51.960;5.886;2022-08-14T14:07:48;30.70;65.60
36800;DHT22;22752;51.960;5.886;2022-08-14T14:10:16;30.70;65.10
36800;DHT22;22752;51.960;5.886;2022-08-14T14:12:44;30.50;65.40
36800;DHT22;22752;51.960;5.886;2022-08-14T14:15:13;30.40;65.20
36800;DHT22;22752;51.960;5.886;2022-08-14T14:17:43;30.20;65.20
36800;DHT22;22752;51.960;5.886;2022-08-14T14:20:13;30.10;66.30
36800;DHT22;22752;51.960;5.886;2022-08-14T14:22:40;30.20;66.40
36800;DHT22;22752;51.960;5.886;2022-08-14T14:25:08;30.40;65.90
36800;DHT22;22752;51.960;5.886;2022-08-14T14:27:35;30.80;65.30
36800;DHT22;22752;51.960;5.886;2022-08-14T14:30:02;31.10;64.50
36800;DHT22;22752;51.960;5.886;2022-08-14T14:32:30;31.40;64.10
36800;DHT22;22752;51.960;5.886;2022-08-14T14:34:59;31.70;63.10
36800;DHT22;22752;51.960;5.886;2022-08-14T14:37:27;32.10;62.20
36800;DHT22;22752;51.960;5.886;2022-08-14T14:39:57;32.30;62.10
36800;DHT22;22752;51.960;5.886;2022-08-14T14:42:27;32.50;61.30
36800;DHT22;22752;51.960;5.886;2022-08-14T14:45:03;32.60;61.10
36800;DHT22;22752;51.960;5.886;2022-08-14T14:47:31;32.80;60.20
36800;DHT22;22752;51.960;5.886;2022-08-14T14:49:59;32.90;60.50
36800;DHT22;22752;51.960;5.886;2022-08-14T14:52:24;32.90;59.70
36800;DHT22;22752;51.960;5.886;2022-08-14T14:54:50;32.90;59.50
36800;DHT22;22752;51.960;5.886;2022-08-14T14:57:17;32.90;59.40
36800;DHT22;22752;51.960;5.886;2022-08-14T14:59:43;32.90;60.00
36800;DHT22;22752;51.960;5.886;2022-08-14T15:02:15;32.80;60.10
36800;DHT22;22752;51.960;5.886;2022-08-14T15:04:48;32.70;60.20
36800;DHT22;22752;51.960;5.886;2022-08-14T15:07:14;32.50;60.00
36800;DHT22;22752;51.960;5.886;2022-08-14T15:09:42;32.40;60.30
36800;DHT22;22752;51.960;5.886;2022-08-14T15:12:08;32.30;59.30
36800;DHT22;22752;51.960;5.886;2022-08-14T15:14:34;32.20;59.40
36800;DHT22;22752;51.960;5.886;2022-08-14T15:17:00;32.20;59.30
36800;DHT22;22752;51.960;5.886;2022-08-14T15:19:26;32.30;59.60
36800;DHT22;22752;51.960;5.886;2022-08-14T15:21:52;32.30;60.00
36800;DHT22;22752;51.960;5.886;2022-08-14T15:24:18;32.30;59.40
36800;DHT22;22752;51.960;5.886;2022-08-14T15:26:44;32.40;60.00
36800;DHT22;22752;51.960;5.886;2022-08-14T15:29:09;32.30;59.60
36800;DHT22;22752;51.960;5.886;2022-08-14T15:31:39;32.40;59.70
36800;DHT22;22752;51.960;5.886;2022-08-14T15:34:05;32.30;60.30
36800;DHT22;22752;51.960;5.886;2022-08-14T15:36:42;32.10;59.80
36800;DHT22;22752;51.960;5.886;2022-08-14T15:39:10;32.00;60.40
36800;DHT22;22752;51.960;5.886;2022-08-14T15:41:36;31.90;60.00
36800;DHT22;22752;51.960;5.886;2022-08-14T15:44:03;31.90;59.90
36800;DHT22;22752;51.960;5.886;2022-08-14T15:46:29;31.80;60.00
36800;DHT22;22752;51.960;5.886;2022-08-14T15:48:55;31.80;60.00
36800;DHT22;22752;51.960;5.886;2022-08-14T15:51:21;31.70;60.30
36800;DHT22;22752;51.960;5.886;2022-08-14T15:53:46;31.60;60.80
36800;DHT22;22752;51.960;5.886;2022-08-14T15:56:15;31.50;60.90
36800;DHT22;22752;51.960;5.886;2022-08-14T15:58:40;31.40;60.90
36800;DHT22;22752;51.960;5.886;2022-08-14T16:01:06;31.40;61.10
36800;DHT22;22752;51.960;5.886;2022-08-14T16:03:53;31.40;61.10